createdAt,value
2022-10-18T00:00:22.635Z,84.52
2022-10-18T00:02:49.597Z,84.78
2022-10-18T00:05:16.666Z,84.67
2022-10-18T00:07:43.891Z,84.55
2022-10-18T00:10:11.054Z,84.58
2022-10-18T00:12:38.950Z,84.79
2022-10-18T00:15:07.137Z,84.46
2022-10-18T00:17:34.859Z,84.64
2022-10-18T00:20:01.897Z,84.63
2022-10-18T00:22:30.325Z,84.88
2022-10-18T00:24:57.896Z,84.46
2022-10-18T00:27:24.842Z,84.41
2022-10-18T00:29:54.833Z,84.33
2022-10-18T00:32:22.113Z,84.49
2022-10-18T00:34:49.065Z,84.21
2022-10-18T00:37:16.351Z,84.06
2022-10-18T00:39:43.712Z,84.10
2022-10-18T00:42:17.016Z,83.99
2022-10-18T00:44:43.974Z,83.92
2022-10-18T00:47:13.582Z,83.80
2022-10-18T00:49:53.640Z,83.78
2022-10-18T00:52:25.923Z,83.64
2022-10-18T00:54:53.441Z,83.66
2022-10-18T00:57:20.822Z,83.40
2022-10-18T00:59:47.866Z,83.84
2022-10-18T01:02:18.360Z,83.41
2022-10-18T01:04:46.222Z,83.55
2022-10-18T01:07:15.903Z,83.50
2022-10-18T01:10:01.624Z,83.59
2022-10-18T01:12:45.345Z,83.27
2022-10-18T01:15:12.556Z,83.30
2022-10-18T01:17:48.460Z,83.36
2022-10-18T01:20:34.313Z,83.03
2022-10-18T01:23:11.380Z,83.14
2022-10-18T01:25:52.097Z,83.16
2022-10-18T01:28:37.902Z,82.97
2022-10-18T01:31:15.310Z,83.03
2022-10-18T01:33:42.258Z,83.02
2022-10-18T01:36:12.195Z,83.03
2022-10-18T01:38:40.611Z,82.85
2022-10-18T01:41:13.209Z,83.19
2022-10-18T01:43:43.961Z,83.06
2022-10-18T01:46:11.968Z,83.17
2022-10-18T01:48:39.553Z,82.57
2022-10-18T01:51:06.649Z,82.65
2022-10-18T01:53:34.685Z,82.88
2022-10-18T01:56:01.721Z,82.68
2022-10-18T01:58:32.629Z,82.68
2022-10-18T02:03:43.838Z,82.58
2022-10-18T02:06:19.112Z,82.56
2022-10-18T02:08:48.859Z,82.49
2022-10-18T02:11:17.590Z,82.50
2022-10-18T02:13:57.345Z,82.27
2022-10-18T02:16:35.041Z,82.46
2022-10-18T02:19:05.596Z,82.21
2022-10-18T02:21:32.653Z,82.18
2022-10-18T02:24:01.350Z,82.07
2022-10-18T02:26:28.373Z,82.04
2022-10-18T02:28:55.465Z,82.07
2022-10-18T02:31:27.500Z,82.09
2022-10-18T02:34:00.588Z,82.11
2022-10-18T02:36:36.582Z,81.91
2022-10-18T02:39:14.776Z,81.88
2022-10-18T02:41:41.920Z,81.96
2022-10-18T02:44:09.067Z,81.66
2022-10-18T02:46:36.069Z,81.75
2022-10-18T02:49:03.034Z,81.69
2022-10-18T02:51:30.008Z,81.80
2022-10-18T02:53:56.957Z,81.35
2022-10-18T02:56:24.190Z,81.66
2022-10-18T02:58:51.085Z,81.56
2022-10-18T03:01:18.166Z,81.96
2022-10-18T03:03:45.367Z,81.52
2022-10-18T03:06:12.295Z,81.37
2022-10-18T03:08:39.318Z,81.30
2022-10-18T03:11:06.693Z,81.36
2022-10-18T03:13:34.496Z,81.65
2022-10-18T03:16:01.648Z,81.25
2022-10-18T03:18:29.102Z,81.18
2022-10-18T03:20:56.069Z,81.07
2022-10-18T03:23:23.034Z,81.20
2022-10-18T03:25:50.125Z,81.22
2022-10-18T03:28:17.234Z,81.06
2022-10-18T03:30:44.144Z,81.27
2022-10-18T03:33:11.076Z,80.97
2022-10-18T03:35:38.016Z,81.06
2022-10-18T03:38:05.016Z,81.00
2022-10-18T03:43:03.818Z,81.12
2022-10-18T03:45:31.543Z,80.93
2022-10-18T03:47:58.802Z,81.00
2022-10-18T03:50:25.755Z,81.07
2022-10-18T03:52:54.303Z,81.16
2022-10-18T03:55:21.405Z,80.97
2022-10-18T03:57:48.458Z,81.08
2022-10-18T04:00:15.600Z,80.76
2022-10-18T04:02:42.581Z,80.78
2022-10-18T04:05:09.764Z,81.05
2022-10-18T04:10:08.916Z,81.04
2022-10-18T04:12:36.026Z,80.85
2022-10-18T04:15:03.052Z,80.97
2022-10-18T04:17:30.518Z,80.78
2022-10-18T04:19:57.964Z,80.88
2022-10-18T04:22:24.903Z,80.61
2022-10-18T04:24:53.486Z,80.89
2022-10-18T04:27:20.483Z,80.74
2022-10-18T04:29:47.640Z,80.87
2022-10-18T04:32:14.613Z,80.63
2022-10-18T04:34:44.601Z,80.33
2022-10-18T04:37:11.628Z,80.46
2022-10-18T04:39:38.633Z,80.76
2022-10-18T04:42:05.586Z,80.22
2022-10-18T04:44:32.501Z,80.15
2022-10-18T04:46:59.425Z,80.28
2022-10-18T04:49:26.402Z,80.24
2022-10-18T04:51:53.372Z,80.42
2022-10-18T04:54:21.864Z,79.90
2022-10-18T04:56:50.864Z,80.09
2022-10-18T04:59:17.847Z,79.98
2022-10-18T05:01:45.472Z,79.48
2022-10-18T05:04:12.737Z,80.05
2022-10-18T05:06:39.949Z,79.84
2022-10-18T05:09:06.891Z,79.69
2022-10-18T05:11:34.017Z,79.72
2022-10-18T05:14:00.978Z,79.57
2022-10-18T05:16:28.670Z,79.33
2022-10-18T05:18:55.828Z,79.58
2022-10-18T05:21:22.773Z,79.73
2022-10-18T05:23:49.774Z,79.51
2022-10-18T05:26:16.736Z,79.75
2022-10-18T05:28:43.851Z,79.50
2022-10-18T05:31:11.925Z,79.24
2022-10-18T05:33:39.058Z,79.33
2022-10-18T05:36:06.442Z,79.08
2022-10-18T05:38:33.466Z,78.99
2022-10-18T05:41:03.979Z,78.92
2022-10-18T05:43:30.980Z,79.14
2022-10-18T05:45:57.951Z,78.56
2022-10-18T05:48:25.020Z,79.33
2022-10-18T05:50:51.980Z,78.32
2022-10-18T05:53:35.760Z,79.06
2022-10-18T05:56:04.240Z,78.36
2022-10-18T05:58:31.204Z,78.65
2022-10-18T06:00:59.307Z,78.52
2022-10-18T06:03:27.789Z,78.59
2022-10-18T06:05:59.219Z,78.79
2022-10-18T06:08:26.137Z,78.82
2022-10-18T06:10:53.135Z,78.15
2022-10-18T06:13:20.388Z,78.72
2022-10-18T06:15:47.531Z,78.93
2022-10-18T06:18:14.473Z,79.10
2022-10-18T06:20:41.425Z,78.37
2022-10-18T06:23:08.589Z,79.16
2022-10-18T06:25:35.559Z,78.72
2022-10-18T06:28:05.232Z,78.49
2022-10-18T06:30:34.490Z,78.63
2022-10-18T06:33:01.502Z,78.63
2022-10-18T06:35:28.541Z,78.54
2022-10-18T06:37:55.486Z,78.50
2022-10-18T06:40:22.484Z,79.04
2022-10-18T06:43:00.007Z,78.49
2022-10-18T06:45:33.592Z,79.27
2022-10-18T06:48:00.532Z,79.12
2022-10-18T06:50:27.551Z,79.12
2022-10-18T06:52:54.597Z,79.11
2022-10-18T06:55:21.644Z,79.19
2022-10-18T06:57:48.676Z,79.05
2022-10-18T07:00:15.845Z,79.47
2022-10-18T07:02:42.815Z,79.77
2022-10-18T07:05:11.590Z,79.89
2022-10-18T07:07:38.691Z,79.34
2022-10-18T07:10:06.128Z,79.81
2022-10-18T07:12:33.567Z,80.16
2022-10-18T07:15:01.378Z,80.54
2022-10-18T07:17:31.066Z,80.02
2022-10-18T07:19:58.309Z,80.18
2022-10-18T07:22:30.036Z,80.79
2022-10-18T07:24:57.282Z,80.54
2022-10-18T07:27:24.276Z,80.00
2022-10-18T07:29:51.290Z,80.17
2022-10-18T07:32:18.215Z,80.67
2022-10-18T07:34:45.392Z,80.85
2022-10-18T07:37:12.419Z,81.47
2022-10-18T07:39:39.329Z,81.05
2022-10-18T07:42:06.359Z,80.88
2022-10-18T07:44:33.262Z,81.09
2022-10-18T07:47:00.308Z,80.98
2022-10-18T07:49:27.280Z,80.97
2022-10-18T07:51:54.238Z,81.36
2022-10-18T07:54:22.527Z,80.52
2022-10-18T07:56:49.545Z,80.89
2022-10-18T07:59:16.467Z,81.06
2022-10-18T08:01:43.737Z,81.04
2022-10-18T08:04:16.065Z,81.28
2022-10-18T08:06:43.678Z,80.87
2022-10-18T08:09:10.713Z,81.12
2022-10-18T08:11:37.651Z,81.02
2022-10-18T08:14:04.609Z,81.00
2022-10-18T08:16:34.164Z,81.67
2022-10-18T08:19:01.080Z,81.64
2022-10-18T08:21:28.040Z,81.62
2022-10-18T08:23:55.267Z,82.04
2022-10-18T08:26:22.873Z,82.25
2022-10-18T08:29:03.535Z,82.40
2022-10-18T08:31:36.817Z,83.00
2022-10-18T08:34:03.794Z,83.61
2022-10-18T08:36:31.000Z,84.60
2022-10-18T08:38:58.029Z,85.35
2022-10-18T08:41:37.186Z,85.92
2022-10-18T08:44:23.063Z,86.54
2022-10-18T08:46:55.696Z,87.22
2022-10-18T08:49:26.910Z,88.35
2022-10-18T08:51:53.871Z,88.98
2022-10-18T08:54:27.590Z,90.13
2022-10-18T08:57:01.538Z,90.46
2022-10-18T08:59:39.655Z,91.18
2022-10-18T09:02:19.223Z,91.97
2022-10-18T09:05:12.453Z,92.59
2022-10-18T09:07:42.154Z,93.20
2022-10-18T09:10:38.497Z,94.02
2022-10-18T09:13:15.882Z,94.61
2022-10-18T09:15:45.682Z,95.26
2022-10-18T09:18:28.729Z,94.99
2022-10-18T09:20:57.233Z,95.83
2022-10-18T09:23:38.239Z,96.11
2022-10-18T09:26:16.721Z,96.56
2022-10-18T09:28:53.937Z,96.86
2022-10-18T09:31:23.695Z,97.38
2022-10-18T09:34:20.048Z,97.51
2022-10-18T09:36:50.625Z,98.04
2022-10-18T09:39:31.559Z,98.70
2022-10-18T09:42:19.086Z,98.77
2022-10-18T09:44:49.128Z,99.14
2022-10-18T09:47:17.040Z,99.61
2022-10-18T09:50:05.205Z,100.00
2022-10-18T09:52:37.567Z,100.00
2022-10-18T09:55:09.765Z,100.00
2022-10-18T09:57:43.832Z,100.00
2022-10-18T10:00:18.802Z,100.00
2022-10-18T10:02:45.881Z,100.00
2022-10-18T10:05:14.294Z,100.00
2022-10-18T10:07:42.872Z,100.00
2022-10-18T10:10:26.781Z,100.00
2022-10-18T10:13:12.326Z,100.00
2022-10-18T10:15:42.405Z,100.00
2022-10-18T10:18:19.445Z,100.00
2022-10-18T10:20:54.243Z,100.00
2022-10-18T10:23:21.335Z,100.00
2022-10-18T10:25:56.073Z,100.00
2022-10-18T10:28:48.773Z,100.00
2022-10-18T10:31:24.888Z,100.00
2022-10-18T10:34:30.834Z,100.00
2022-10-18T10:36:58.073Z,100.00
2022-10-18T10:39:25.210Z,100.00
2022-10-18T10:41:53.619Z,100.00
2022-10-18T10:44:25.435Z,100.00
2022-10-18T10:46:53.506Z,100.00
2022-10-18T10:52:28.082Z,100.00
2022-10-18T10:57:46.336Z,100.00
2022-10-18T11:00:37.302Z,100.00
2022-10-18T11:03:27.875Z,100.00
2022-10-18T11:05:58.021Z,100.00
2022-10-18T11:08:41.796Z,100.00
2022-10-18T11:11:28.680Z,100.00
2022-10-18T11:14:20.992Z,100.00
2022-10-18T11:16:49.461Z,100.00
2022-10-18T11:19:32.813Z,100.00
2022-10-18T11:22:02.145Z,100.00
2022-10-18T11:24:29.449Z,100.00
2022-10-18T11:27:02.226Z,100.00
2022-10-18T11:29:32.246Z,100.00
2022-10-18T11:32:12.215Z,100.00
2022-10-18T11:34:46.887Z,100.00
2022-10-18T11:37:39.532Z,100.00
2022-10-18T11:40:06.670Z,100.00
2022-10-18T11:42:52.478Z,100.00
2022-10-18T11:45:25.897Z,100.00
2022-10-18T11:47:55.698Z,100.00
2022-10-18T11:50:26.352Z,100.00
2022-10-18T11:53:05.136Z,100.00
2022-10-18T11:55:38.189Z,100.00
2022-10-18T11:58:05.392Z,100.00
2022-10-18T12:00:41.129Z,100.00
2022-10-18T12:03:14.183Z,100.00
2022-10-18T12:05:43.749Z,100.00
2022-10-18T12:08:16.263Z,100.00
2022-10-18T12:11:04.140Z,100.00
2022-10-18T12:13:43.914Z,100.00
2022-10-18T12:16:11.322Z,100.00
2022-10-18T12:18:58.587Z,100.00
2022-10-18T12:21:27.468Z,100.00
2022-10-18T12:23:57.604Z,100.00
2022-10-18T12:26:25.802Z,100.00
2022-10-18T12:29:01.890Z,100.00
2022-10-18T12:31:30.139Z,100.00
2022-10-18T12:34:00.554Z,100.00
2022-10-18T12:36:53.728Z,100.00
2022-10-18T12:39:44.009Z,100.00
2022-10-18T12:42:19.773Z,100.00
2022-10-18T12:44:47.104Z,100.00
2022-10-18T12:47:25.990Z,100.00
2022-10-18T12:50:00.772Z,100.00
2022-10-18T12:52:30.603Z,100.00
2022-10-18T12:55:02.226Z,100.00
2022-10-18T12:58:09.058Z,100.00
2022-10-18T13:00:35.946Z,100.00
2022-10-18T13:03:21.240Z,100.00
2022-10-18T13:05:55.653Z,100.00
2022-10-18T13:08:25.845Z,100.00
2022-10-18T13:11:13.049Z,100.00
2022-10-18T13:14:07.230Z,100.00
2022-10-18T13:16:40.869Z,100.00
2022-10-18T13:19:18.053Z,100.00
2022-10-18T13:21:47.914Z,100.00
2022-10-18T13:24:29.334Z,100.00
2022-10-18T13:27:18.041Z,100.00
2022-10-18T13:29:56.335Z,100.00
2022-10-18T13:32:35.830Z,100.00
2022-10-18T13:35:03.735Z,100.00
2022-10-18T13:37:30.973Z,100.00
2022-10-18T13:40:24.314Z,100.00
2022-10-18T13:42:51.368Z,100.00
2022-10-18T13:45:33.615Z,100.00
2022-10-18T13:48:35.617Z,100.00
2022-10-18T13:51:20.559Z,100.00
2022-10-18T13:54:01.727Z,100.00
2022-10-18T13:56:40.630Z,100.00
2022-10-18T13:59:30.379Z,100.00
2022-10-18T14:02:09.120Z,100.00
2022-10-18T14:04:45.318Z,100.00
2022-10-18T14:07:12.704Z,100.00
2022-10-18T14:09:52.521Z,100.00
2022-10-18T14:12:31.340Z,100.00
2022-10-18T14:15:03.680Z,100.00
2022-10-18T14:17:30.820Z,100.00
2022-10-18T14:20:17.517Z,100.00
2022-10-18T14:22:53.477Z,100.00
2022-10-18T14:25:20.680Z,100.00
2022-10-18T14:27:50.928Z,100.00
2022-10-18T14:30:20.914Z,100.00
2022-10-18T14:32:49.313Z,100.00
2022-10-18T14:35:33.621Z,100.00
2022-10-18T14:38:02.229Z,100.00
2022-10-18T14:40:31.330Z,100.00
2022-10-18T14:43:01.963Z,100.00
2022-10-18T14:45:28.925Z,100.00
2022-10-18T14:47:55.939Z,100.00
2022-10-18T14:50:25.440Z,100.00
2022-10-18T14:52:54.169Z,100.00
2022-10-18T14:55:25.621Z,100.00
2022-10-18T14:57:52.820Z,100.00
2022-10-18T15:00:41.853Z,100.00
2022-10-18T15:03:13.416Z,100.00
2022-10-18T15:05:51.855Z,100.00
2022-10-18T15:08:19.342Z,100.00
2022-10-18T15:10:46.574Z,100.00
2022-10-18T15:13:14.158Z,100.00
2022-10-18T15:15:41.604Z,100.00
2022-10-18T15:18:08.573Z,100.00
2022-10-18T15:20:39.750Z,100.00
2022-10-18T15:23:27.030Z,100.00
2022-10-18T15:26:00.622Z,100.00
2022-10-18T15:28:33.038Z,100.00
2022-10-18T15:31:02.019Z,100.00
2022-10-18T15:33:34.527Z,100.00
2022-10-18T15:36:11.744Z,100.00
2022-10-18T15:38:39.062Z,100.00
2022-10-18T15:41:24.703Z,100.00
2022-10-18T15:43:51.633Z,100.00
2022-10-18T15:46:32.406Z,100.00
2022-10-18T15:49:19.577Z,100.00
2022-10-18T15:51:50.081Z,100.00
2022-10-18T15:54:20.154Z,100.00
2022-10-18T15:56:47.160Z,100.00
2022-10-18T15:59:28.048Z,100.00
2022-10-18T16:01:55.423Z,100.00
2022-10-18T16:04:29.605Z,100.00
2022-10-18T16:06:57.390Z,100.00
2022-10-18T16:09:25.516Z,100.00
2022-10-18T16:11:56.619Z,100.00
2022-10-18T16:14:24.885Z,100.00
2022-10-18T16:16:54.026Z,100.00
2022-10-18T16:19:24.166Z,100.00
2022-10-18T16:21:54.482Z,100.00
2022-10-18T16:24:22.033Z,100.00
2022-10-18T16:26:49.839Z,100.00
2022-10-18T16:29:24.431Z,100.00
2022-10-18T16:31:53.618Z,100.00
2022-10-18T16:34:20.558Z,100.00
2022-10-18T16:36:47.510Z,100.00
2022-10-18T16:39:16.162Z,100.00
2022-10-18T16:41:43.605Z,100.00
2022-10-18T16:44:10.796Z,100.00
2022-10-18T16:46:37.907Z,100.00
2022-10-18T16:49:05.551Z,100.00
2022-10-18T16:51:32.489Z,100.00
2022-10-18T16:53:59.425Z,100.00
2022-10-18T16:56:28.270Z,100.00
2022-10-18T16:58:55.264Z,100.00
2022-10-18T17:01:23.237Z,100.00
2022-10-18T17:03:54.011Z,100.00
2022-10-18T17:06:25.350Z,100.00
2022-10-18T17:08:53.392Z,100.00
2022-10-18T17:11:21.054Z,100.00
2022-10-18T17:13:48.008Z,100.00
2022-10-18T17:16:24.429Z,100.00
2022-10-18T17:18:51.561Z,100.00
2022-10-18T17:21:18.942Z,100.00
2022-10-18T17:23:45.906Z,100.00
2022-10-18T17:26:28.421Z,100.00
2022-10-18T17:28:58.643Z,100.00
2022-10-18T17:31:25.693Z,100.00
2022-10-18T17:33:54.860Z,100.00
2022-10-18T17:36:22.517Z,100.00
2022-10-18T17:38:55.883Z,100.00
2022-10-18T17:41:23.125Z,100.00
2022-10-18T17:43:50.124Z,100.00
2022-10-18T17:46:18.141Z,100.00
2022-10-18T17:48:45.641Z,100.00
2022-10-18T17:51:14.242Z,100.00
2022-10-18T17:53:41.346Z,100.00
2022-10-18T17:56:08.454Z,100.00
2022-10-18T17:58:35.775Z,100.00
2022-10-18T18:01:19.160Z,100.00
2022-10-18T18:03:47.949Z,100.00
2022-10-18T18:06:19.163Z,100.00
2022-10-18T18:08:47.035Z,100.00
2022-10-18T18:11:14.357Z,100.00
2022-10-18T18:13:41.478Z,100.00
2022-10-18T18:16:11.933Z,100.00
2022-10-18T18:18:38.947Z,100.00
2022-10-18T18:21:06.008Z,100.00
2022-10-18T18:23:33.058Z,100.00
2022-10-18T18:26:00.514Z,100.00
2022-10-18T18:28:27.504Z,100.00
2022-10-18T18:30:54.588Z,100.00
2022-10-18T18:33:21.643Z,100.00
2022-10-18T18:35:58.317Z,100.00
2022-10-18T18:38:25.937Z,100.00
2022-10-18T18:41:06.554Z,100.00
2022-10-18T18:43:33.698Z,100.00
2022-10-18T18:46:00.665Z,100.00
2022-10-18T18:48:28.578Z,100.00
2022-10-18T18:50:55.552Z,100.00
2022-10-18T18:53:25.843Z,100.00
2022-10-18T18:55:54.316Z,100.00
2022-10-18T18:58:21.379Z,100.00
2022-10-18T19:00:48.530Z,100.00
2022-10-18T19:03:15.581Z,100.00
2022-10-18T19:05:42.605Z,100.00
2022-10-18T19:08:09.656Z,100.00
2022-10-18T19:10:36.743Z,100.00
2022-10-18T19:13:03.859Z,100.00
2022-10-18T19:15:31.001Z,100.00
2022-10-18T19:17:58.080Z,100.00
2022-10-18T19:20:25.112Z,100.00
2022-10-18T19:22:52.159Z,100.00
2022-10-18T19:25:21.163Z,100.00
2022-10-18T19:27:50.516Z,100.00
2022-10-18T19:30:19.939Z,100.00
2022-10-18T19:32:46.890Z,100.00
2022-10-18T19:35:13.787Z,100.00
2022-10-18T19:37:40.965Z,100.00
2022-10-18T19:40:08.153Z,100.00
2022-10-18T19:42:37.592Z,100.00
2022-10-18T19:45:05.093Z,100.00
2022-10-18T19:47:32.076Z,100.00
2022-10-18T19:49:59.351Z,100.00
2022-10-18T19:52:28.507Z,100.00
2022-10-18T19:54:55.588Z,100.00
2022-10-18T19:57:22.592Z,100.00
2022-10-18T19:59:55.162Z,100.00
2022-10-18T20:02:26.510Z,100.00
2022-10-18T20:04:56.414Z,100.00
2022-10-18T20:07:23.305Z,100.00
2022-10-18T20:09:50.364Z,100.00
2022-10-18T20:12:17.336Z,100.00
2022-10-18T20:14:47.409Z,100.00
2022-10-18T20:17:15.904Z,100.00
2022-10-18T20:19:45.439Z,100.00
2022-10-18T20:22:12.554Z,100.00
2022-10-18T20:24:39.530Z,100.00
2022-10-18T20:27:06.493Z,100.00
2022-10-18T20:29:33.716Z,100.00
2022-10-18T20:32:00.765Z,100.00
2022-10-18T20:34:28.721Z,100.00
2022-10-18T20:37:00.160Z,100.00
2022-10-18T20:39:27.435Z,100.00
2022-10-18T20:41:57.048Z,100.00
2022-10-18T20:44:29.316Z,100.00
2022-10-18T20:46:56.240Z,100.00
2022-10-18T20:49:23.191Z,100.00
2022-10-18T20:51:53.006Z,100.00
2022-10-18T20:54:20.055Z,100.00
2022-10-18T20:56:49.540Z,100.00
2022-10-18T20:59:17.302Z,100.00
2022-10-18T21:01:44.962Z,100.00
2022-10-18T21:04:11.999Z,100.00
2022-10-18T21:06:43.711Z,100.00
2022-10-18T21:09:10.722Z,100.00
2022-10-18T21:11:39.166Z,100.00
2022-10-18T21:14:12.302Z,100.00
2022-10-18T21:16:42.990Z,100.00
2022-10-18T21:19:10.538Z,100.00
2022-10-18T21:21:37.714Z,100.00
2022-10-18T21:24:07.702Z,100.00
2022-10-18T21:26:35.930Z,100.00
2022-10-18T21:29:04.077Z,100.00
2022-10-18T21:31:32.758Z,100.00
2022-10-18T21:34:06.678Z,100.00
2022-10-18T21:36:36.887Z,100.00
2022-10-18T21:39:05.886Z,100.00
2022-10-18T21:41:33.579Z,100.00
2022-10-18T21:44:05.562Z,100.00
2022-10-18T21:46:35.600Z,100.00
2022-10-18T21:49:02.709Z,100.00
2022-10-18T21:51:29.738Z,100.00
2022-10-18T21:53:57.608Z,100.00
2022-10-18T21:56:31.055Z,100.00
2022-10-18T21:59:01.118Z,100.00
2022-10-18T22:01:35.710Z,100.00
2022-10-18T22:04:04.692Z,100.00
2022-10-18T22:09:07.267Z,100.00
2022-10-18T22:11:42.509Z,100.00
2022-10-18T22:14:10.693Z,100.00
2022-10-18T22:16:40.397Z,100.00
2022-10-18T22:19:07.652Z,100.00
2022-10-18T22:21:37.933Z,100.00
2022-10-18T22:24:06.438Z,100.00
2022-10-18T22:26:37.804Z,100.00
2022-10-18T22:29:12.539Z,100.00
2022-10-18T22:31:41.018Z,100.00
2022-10-18T22:34:13.444Z,100.00
2022-10-18T22:36:40.446Z,100.00
2022-10-18T22:39:11.155Z,100.00
2022-10-18T22:41:40.779Z,100.00
2022-10-18T22:44:12.327Z,100.00
2022-10-18T22:46:39.868Z,100.00
2022-10-18T22:49:06.965Z,100.00
2022-10-18T22:54:02.115Z,100.00
2022-10-18T22:56:29.568Z,100.00
2022-10-18T22:58:56.730Z,100.00
2022-10-18T23:01:24.318Z,100.00
2022-10-18T23:03:58.442Z,100.00
2022-10-18T23:06:27.087Z,100.00
2022-10-18T23:08:59.359Z,100.00
2022-10-18T23:11:35.054Z,100.00
2022-10-18T23:14:03.885Z,100.00
2022-10-18T23:19:38.947Z,100.00
2022-10-18T23:22:23.765Z,100.00
2022-10-18T23:28:23.101Z,100.00
2022-10-18T23:30:55.873Z,100.00
2022-10-18T23:33:25.708Z,100.00
2022-10-18T23:35:59.508Z,100.00
2022-10-18T23:38:26.518Z,100.00
2022-10-18T23:40:59.562Z,100.00
2022-10-18T23:43:26.604Z,100.00
2022-10-18T23:46:14.000Z,100.00
2022-10-18T23:48:41.280Z,100.00
2022-10-18T23:51:08.697Z,100.00
2022-10-18T23:53:38.526Z,100.00
2022-10-18T23:56:19.683Z,100.00
2022-10-18T23:58:48.276Z,100.00
